sensor_id;sensor_type;location;lat;lon;timestamp;temperature;humidity
44851;DHT22;30583;48.714;9.386;2023-07-22T00:00:40;17.70;69.80
44851;DHT22;30583;48.714;9.386;2023-07-22T00:03:06;18.00;69.20
44851;DHT22;30583;48.714;9.386;2023-07-22T00:05:31;18.20;68.70
44851;DHT22;30583;48.714;9.386;2023-07-22T00:07:57;18.30;67.70
44851;DHT22;30583;48.714;9.386;2023-07-22T00:10:22;18.10;68.20
44851;DHT22;30583;48.714;9.386;2023-07-22T00:12:48;18.10;68.20
44851;DHT22;30583;48.714;9.386;2023-07-22T00:15:13;17.60;69.60
44851;DHT22;30583;48.714;9.386;2023-07-22T00:17:40;18.10;68.50
44851;DHT22;30583;48.714;9.386;2023-07-22T00:20:07;18.40;67.40
44851;DHT22;30583;48.714;9.386;2023-07-22T00:22:35;18.50;66.90
44851;DHT22;30583;48.714;9.386;2023-07-22T00:25:01;18.50;67.10
44851;DHT22;30583;48.714;9.386;2023-07-22T00:27:27;18.60;67.50
44851;DHT22;30583;48.714;9.386;2023-07-22T00:29:52;18.60;67.40
44851;DHT22;30583;48.714;9.386;2023-07-22T00:32:18;18.70;67.10
44851;DHT22;30583;48.714;9.386;2023-07-22T00:34:44;18.60;67.20
44851;DHT22;30583;48.714;9.386;2023-07-22T00:37:09;18.60;67.60
44851;DHT22;30583;48.714;9.386;2023-07-22T00:39:35;18.70;67.30
44851;DHT22;30583;48.714;9.386;2023-07-22T00:42:01;18.40;68.00
44851;DHT22;30583;48.714;9.386;2023-07-22T00:44:26;18.10;68.70
44851;DHT22;30583;48.714;9.386;2023-07-22T00:46:54;17.90;69.60
44851;DHT22;30583;48.714;9.386;2023-07-22T00:49:23;17.50;69.70
44851;DHT22;30583;48.714;9.386;2023-07-22T00:51:49;17.20;70.90
44851;DHT22;30583;48.714;9.386;2023-07-22T00:54:15;17.60;70.40
44851;DHT22;30583;48.714;9.386;2023-07-22T00:56:41;17.50;69.80
44851;DHT22;30583;48.714;9.386;2023-07-22T00:59:07;17.70;69.10
44851;DHT22;30583;48.714;9.386;2023-07-22T01:01:33;17.80;68.50
44851;DHT22;30583;48.714;9.386;2023-07-22T01:03:59;17.40;70.00
44851;DHT22;30583;48.714;9.386;2023-07-22T01:06:26;17.80;69.50
44851;DHT22;30583;48.714;9.386;2023-07-22T01:08:54;18.00;68.30
44851;DHT22;30583;48.714;9.386;2023-07-22T01:11:20;17.90;68.60
44851;DHT22;30583;48.714;9.386;2023-07-22T01:13:45;18.10;68.50
44851;DHT22;30583;48.714;9.386;2023-07-22T01:16:11;18.40;67.40
44851;DHT22;30583;48.714;9.386;2023-07-22T01:18:38;18.30;66.90
44851;DHT22;30583;48.714;9.386;2023-07-22T01:21:04;18.30;66.90
44851;DHT22;30583;48.714;9.386;2023-07-22T01:23:31;18.40;67.20
44851;DHT22;30583;48.714;9.386;2023-07-22T01:25:57;18.40;66.30
44851;DHT22;30583;48.714;9.386;2023-07-22T01:28:23;18.30;66.50
44851;DHT22;30583;48.714;9.386;2023-07-22T01:30:49;18.20;67.40
44851;DHT22;30583;48.714;9.386;2023-07-22T01:33:14;18.20;67.20
44851;DHT22;30583;48.714;9.386;2023-07-22T01:35:40;18.10;66.90
44851;DHT22;30583;48.714;9.386;2023-07-22T01:38:06;17.70;68.30
44851;DHT22;30583;48.714;9.386;2023-07-22T01:40:33;17.00;70.60
44851;DHT22;30583;48.714;9.386;2023-07-22T01:42:59;17.60;68.60
44851;DHT22;30583;48.714;9.386;2023-07-22T01:45:24;17.70;68.10
44851;DHT22;30583;48.714;9.386;2023-07-22T01:47:50;17.70;67.90
44851;DHT22;30583;48.714;9.386;2023-07-22T01:50:16;17.70;68.10
44851;DHT22;30583;48.714;9.386;2023-07-22T01:52:44;17.50;68.10
44851;DHT22;30583;48.714;9.386;2023-07-22T01:55:09;17.00;69.00
44851;DHT22;30583;48.714;9.386;2023-07-22T01:57:36;17.10;68.60
44851;DHT22;30583;48.714;9.386;2023-07-22T02:00:02;17.40;68.80
44851;DHT22;30583;48.714;9.386;2023-07-22T02:02:30;17.30;68.70
44851;DHT22;30583;48.714;9.386;2023-07-22T02:04:56;17.00;69.80
44851;DHT22;30583;48.714;9.386;2023-07-22T02:07:21;16.90;69.00
44851;DHT22;30583;48.714;9.386;2023-07-22T02:09:47;16.80;70.90
44851;DHT22;30583;48.714;9.386;2023-07-22T02:12:13;17.20;69.80
44851;DHT22;30583;48.714;9.386;2023-07-22T02:14:38;17.40;68.50
44851;DHT22;30583;48.714;9.386;2023-07-22T02:17:04;17.40;68.60
44851;DHT22;30583;48.714;9.386;2023-07-22T02:19:30;17.30;68.30
44851;DHT22;30583;48.714;9.386;2023-07-22T02:21:55;17.10;69.60
44851;DHT22;30583;48.714;9.386;2023-07-22T02:24:21;17.10;70.00
44851;DHT22;30583;48.714;9.386;2023-07-22T02:26:47;17.20;69.60
44851;DHT22;30583;48.714;9.386;2023-07-22T02:29:12;17.30;68.70
44851;DHT22;30583;48.714;9.386;2023-07-22T02:31:38;17.10;69.00
44851;DHT22;30583;48.714;9.386;2023-07-22T02:34:05;17.00;70.20
44851;DHT22;30583;48.714;9.386;2023-07-22T02:36:31;17.30;68.80
44851;DHT22;30583;48.714;9.386;2023-07-22T02:38:56;17.20;68.90
44851;DHT22;30583;48.714;9.386;2023-07-22T02:41:22;17.60;67.80
44851;DHT22;30583;48.714;9.386;2023-07-22T02:43:48;17.60;67.00
44851;DHT22;30583;48.714;9.386;2023-07-22T02:46:13;17.20;68.60
44851;DHT22;30583;48.714;9.386;2023-07-22T02:48:39;16.70;69.40
44851;DHT22;30583;48.714;9.386;2023-07-22T02:51:05;17.10;69.60
44851;DHT22;30583;48.714;9.386;2023-07-22T02:53:32;17.60;68.70
44851;DHT22;30583;48.714;9.386;2023-07-22T02:55:59;17.80;67.20
44851;DHT22;30583;48.714;9.386;2023-07-22T02:58:24;17.20;68.80
44851;DHT22;30583;48.714;9.386;2023-07-22T03:00:50;17.10;68.40
44851;DHT22;30583;48.714;9.386;2023-07-22T03:03:15;16.50;70.00
44851;DHT22;30583;48.714;9.386;2023-07-22T03:05:41;16.20;70.20
44851;DHT22;30583;48.714;9.386;2023-07-22T03:08:07;16.70;71.00
44851;DHT22;30583;48.714;9.386;2023-07-22T03:10:32;17.20;68.40
44851;DHT22;30583;48.714;9.386;2023-07-22T03:12:58;17.00;69.00
44851;DHT22;30583;48.714;9.386;2023-07-22T03:15:25;16.40;70.70
44851;DHT22;30583;48.714;9.386;2023-07-22T03:17:54;16.30;70.80
44851;DHT22;30583;48.714;9.386;2023-07-22T03:20:21;16.40;71.10
44851;DHT22;30583;48.714;9.386;2023-07-22T03:22:47;16.60;69.90
44851;DHT22;30583;48.714;9.386;2023-07-22T03:25:16;16.70;69.40
44851;DHT22;30583;48.714;9.386;2023-07-22T03:27:45;16.60;69.40
44851;DHT22;30583;48.714;9.386;2023-07-22T03:30:17;16.50;70.00
44851;DHT22;30583;48.714;9.386;2023-07-22T03:32:44;16.70;70.40
44851;DHT22;30583;48.714;9.386;2023-07-22T03:35:10;16.80;69.40
44851;DHT22;30583;48.714;9.386;2023-07-22T03:37:36;16.80;69.40
44851;DHT22;30583;48.714;9.386;2023-07-22T03:40:03;17.00;68.40
44851;DHT22;30583;48.714;9.386;2023-07-22T03:42:33;16.90;69.40
44851;DHT22;30583;48.714;9.386;2023-07-22T03:44:59;16.30;70.10
44851;DHT22;30583;48.714;9.386;2023-07-22T03:47:24;16.30;70.90
44851;DHT22;30583;48.714;9.386;2023-07-22T03:49:50;16.20;71.70
44851;DHT22;30583;48.714;9.386;2023-07-22T03:52:15;16.30;71.00
44851;DHT22;30583;48.714;9.386;2023-07-22T03:54:44;16.50;70.60
44851;DHT22;30583;48.714;9.386;2023-07-22T03:57:09;16.00;70.70
44851;DHT22;30583;48.714;9.386;2023-07-22T03:59:35;15.50;72.20
44851;DHT22;30583;48.714;9.386;2023-07-22T04:02:01;15.30;73.70
44851;DHT22;30583;48.714;9.386;2023-07-22T04:04:26;15.50;74.00
44851;DHT22;30583;48.714;9.386;2023-07-22T04:06:52;16.40;72.10
44851;DHT22;30583;48.714;9.386;2023-07-22T04:09:17;17.00;70.00
44851;DHT22;30583;48.714;9.386;2023-07-22T04:11:43;16.80;69.50
44851;DHT22;30583;48.714;9.386;2023-07-22T04:14:08;16.30;71.40
44851;DHT22;30583;48.714;9.386;2023-07-22T04:16:34;16.50;71.00
44851;DHT22;30583;48.714;9.386;2023-07-22T04:19:00;16.50;71.50
44851;DHT22;30583;48.714;9.386;2023-07-22T04:21:25;16.30;71.10
44851;DHT22;30583;48.714;9.386;2023-07-22T04:23:51;16.00;71.60
44851;DHT22;30583;48.714;9.386;2023-07-22T04:26:16;16.50;71.60
44851;DHT22;30583;48.714;9.386;2023-07-22T04:28:42;16.80;70.00
44851;DHT22;30583;48.714;9.386;2023-07-22T04:31:08;17.20;69.20
44851;DHT22;30583;48.714;9.386;2023-07-22T04:33:34;17.20;68.70
44851;DHT22;30583;48.714;9.386;2023-07-22T04:36:00;16.70;70.10
44851;DHT22;30583;48.714;9.386;2023-07-22T04:38:26;17.00;69.70
44851;DHT22;30583;48.714;9.386;2023-07-22T04:40:52;17.10;68.90
44851;DHT22;30583;48.714;9.386;2023-07-22T04:43:17;16.70;68.90
44851;DHT22;30583;48.714;9.386;2023-07-22T04:45:46;16.70;70.30
44851;DHT22;30583;48.714;9.386;2023-07-22T04:48:17;16.50;70.50
44851;DHT22;30583;48.714;9.386;2023-07-22T04:50:43;16.60;70.60
44851;DHT22;30583;48.714;9.386;2023-07-22T04:53:11;16.50;70.60
44851;DHT22;30583;48.714;9.386;2023-07-22T04:55:38;15.90;72.40
44851;DHT22;30583;48.714;9.386;2023-07-22T04:58:04;16.70;72.10
44851;DHT22;30583;48.714;9.386;2023-07-22T05:00:30;16.70;71.20
44851;DHT22;30583;48.714;9.386;2023-07-22T05:02:56;17.10;69.70
44851;DHT22;30583;48.714;9.386;2023-07-22T05:05:21;16.90;69.40
44851;DHT22;30583;48.714;9.386;2023-07-22T05:07:47;16.20;71.30
44851;DHT22;30583;48.714;9.386;2023-07-22T05:10:15;16.80;71.10
44851;DHT22;30583;48.714;9.386;2023-07-22T05:12:42;17.50;69.90
44851;DHT22;30583;48.714;9.386;2023-07-22T05:15:09;17.60;68.40
44851;DHT22;30583;48.714;9.386;2023-07-22T05:17:35;16.80;69.30
44851;DHT22;30583;48.714;9.386;2023-07-22T05:20:01;16.80;69.70
44851;DHT22;30583;48.714;9.386;2023-07-22T05:22:26;16.50;71.60
44851;DHT22;30583;48.714;9.386;2023-07-22T05:24:52;16.70;71.30
44851;DHT22;30583;48.714;9.386;2023-07-22T05:27:17;16.10;72.00
44851;DHT22;30583;48.714;9.386;2023-07-22T05:29:43;16.40;71.80
44851;DHT22;30583;48.714;9.386;2023-07-22T05:32:10;17.20;70.70
44851;DHT22;30583;48.714;9.386;2023-07-22T05:34:36;17.40;69.00
44851;DHT22;30583;48.714;9.386;2023-07-22T05:37:02;17.60;69.20
44851;DHT22;30583;48.714;9.386;2023-07-22T05:39:28;17.40;68.40
44851;DHT22;30583;48.714;9.386;2023-07-22T05:41:54;17.40;68.90
44851;DHT22;30583;48.714;9.386;2023-07-22T05:44:19;17.70;68.50
44851;DHT22;30583;48.714;9.386;2023-07-22T05:46:45;18.00;67.90
44851;DHT22;30583;48.714;9.386;2023-07-22T05:49:11;17.70;68.40
44851;DHT22;30583;48.714;9.386;2023-07-22T05:51:36;18.00;67.70
44851;DHT22;30583;48.714;9.386;2023-07-22T05:54:02;18.20;67.40
44851;DHT22;30583;48.714;9.386;2023-07-22T05:56:28;18.40;67.40
44851;DHT22;30583;48.714;9.386;2023-07-22T05:58:54;18.30;67.30
44851;DHT22;30583;48.714;9.386;2023-07-22T06:01:19;18.60;66.80
44851;DHT22;30583;48.714;9.386;2023-07-22T06:03:45;18.70;66.20
44851;DHT22;30583;48.714;9.386;2023-07-22T06:06:11;18.40;66.30
44851;DHT22;30583;48.714;9.386;2023-07-22T06:08:36;18.40;66.50
44851;DHT22;30583;48.714;9.386;2023-07-22T06:11:02;18.50;66.80
44851;DHT22;30583;48.714;9.386;2023-07-22T06:13:27;18.80;66.40
44851;DHT22;30583;48.714;9.386;2023-07-22T06:15:53;18.50;66.30
44851;DHT22;30583;48.714;9.386;2023-07-22T06:18:18;19.00;66.80
44851;DHT22;30583;48.714;9.386;2023-07-22T06:20:44;19.90;62.80
44851;DHT22;30583;48.714;9.386;2023-07-22T06:23:10;18.60;64.60
44851;DHT22;30583;48.714;9.386;2023-07-22T06:25:36;19.00;67.20
44851;DHT22;30583;48.714;9.386;2023-07-22T06:28:01;20.50;59.70
44851;DHT22;30583;48.714;9.386;2023-07-22T06:30:27;20.50;61.30
44851;DHT22;30583;48.714;9.386;2023-07-22T06:32:53;21.70;57.50
44851;DHT22;30583;48.714;9.386;2023-07-22T06:35:19;22.00;56.30
44851;DHT22;30583;48.714;9.386;2023-07-22T06:37:44;22.20;55.70
44851;DHT22;30583;48.714;9.386;2023-07-22T06:40:10;22.20;55.10
44851;DHT22;30583;48.714;9.386;2023-07-22T06:42:36;21.40;56.50
44851;DHT22;30583;48.714;9.386;2023-07-22T06:45:02;21.30;57.80
44851;DHT22;30583;48.714;9.386;2023-07-22T06:47:28;21.40;56.40
44851;DHT22;30583;48.714;9.386;2023-07-22T06:49:53;21.40;57.40
44851;DHT22;30583;48.714;9.386;2023-07-22T06:52:19;22.10;55.50
44851;DHT22;30583;48.714;9.386;2023-07-22T06:54:45;22.20;54.90
44851;DHT22;30583;48.714;9.386;2023-07-22T06:57:11;22.20;54.70
44851;DHT22;30583;48.714;9.386;2023-07-22T06:59:36;21.70;56.20
44851;DHT22;30583;48.714;9.386;2023-07-22T07:02:03;20.40;59.40
44851;DHT22;30583;48.714;9.386;2023-07-22T07:04:30;20.20;59.70
44851;DHT22;30583;48.714;9.386;2023-07-22T07:06:56;20.80;59.40
44851;DHT22;30583;48.714;9.386;2023-07-22T07:09:22;19.70;61.60
44851;DHT22;30583;48.714;9.386;2023-07-22T07:11:47;21.10;58.60
44851;DHT22;30583;48.714;9.386;2023-07-22T07:14:13;20.90;58.20
44851;DHT22;30583;48.714;9.386;2023-07-22T07:16:38;21.40;57.30
44851;DHT22;30583;48.714;9.386;2023-07-22T07:19:04;22.30;54.90
44851;DHT22;30583;48.714;9.386;2023-07-22T07:21:30;22.40;54.50
44851;DHT22;30583;48.714;9.386;2023-07-22T07:23:55;21.10;56.90
44851;DHT22;30583;48.714;9.386;2023-07-22T07:26:22;21.80;56.50
44851;DHT22;30583;48.714;9.386;2023-07-22T07:28:48;22.40;54.60
44851;DHT22;30583;48.714;9.386;2023-07-22T07:31:16;21.70;56.10
44851;DHT22;30583;48.714;9.386;2023-07-22T07:33:41;22.20;55.10
44851;DHT22;30583;48.714;9.386;2023-07-22T07:36:07;22.30;54.60
44851;DHT22;30583;48.714;9.386;2023-07-22T07:38:32;22.40;54.40
44851;DHT22;30583;48.714;9.386;2023-07-22T07:41:02;22.60;54.00
44851;DHT22;30583;48.714;9.386;2023-07-22T07:43:28;22.30;54.60
44851;DHT22;30583;48.714;9.386;2023-07-22T07:46:22;22.40;54.40
44851;DHT22;30583;48.714;9.386;2023-07-22T07:48:52;22.60;54.00
44851;DHT22;30583;48.714;9.386;2023-07-22T07:51:20;22.60;54.00
44851;DHT22;30583;48.714;9.386;2023-07-22T07:53:46;22.70;54.00
44851;DHT22;30583;48.714;9.386;2023-07-22T07:56:12;21.90;56.00
44851;DHT22;30583;48.714;9.386;2023-07-22T07:58:38;22.60;54.20
44851;DHT22;30583;48.714;9.386;2023-07-22T08:01:04;22.70;53.60
44851;DHT22;30583;48.714;9.386;2023-07-22T08:03:31;22.40;55.80
44851;DHT22;30583;48.714;9.386;2023-07-22T08:05:56;22.70;53.90
44851;DHT22;30583;48.714;9.386;2023-07-22T08:08:22;22.40;56.10
44851;DHT22;30583;48.714;9.386;2023-07-22T08:10:57;21.40;58.00
44851;DHT22;30583;48.714;9.386;2023-07-22T08:13:23;21.40;58.60
44851;DHT22;30583;48.714;9.386;2023-07-22T08:15:49;21.20;59.40
44851;DHT22;30583;48.714;9.386;2023-07-22T08:18:14;21.40;59.00
44851;DHT22;30583;48.714;9.386;2023-07-22T08:20:40;22.10;57.20
44851;DHT22;30583;48.714;9.386;2023-07-22T08:23:06;22.30;57.60
44851;DHT22;30583;48.714;9.386;2023-07-22T08:25:32;22.30;57.10
44851;DHT22;30583;48.714;9.386;2023-07-22T08:27:58;22.20;56.80
44851;DHT22;30583;48.714;9.386;2023-07-22T08:30:23;22.30;56.70
44851;DHT22;30583;48.714;9.386;2023-07-22T08:32:49;22.20;57.20
44851;DHT22;30583;48.714;9.386;2023-07-22T08:35:14;22.50;56.30
44851;DHT22;30583;48.714;9.386;2023-07-22T08:37:43;22.50;55.30
44851;DHT22;30583;48.714;9.386;2023-07-22T08:40:09;22.70;54.50
44851;DHT22;30583;48.714;9.386;2023-07-22T08:42:35;22.70;53.80
44851;DHT22;30583;48.714;9.386;2023-07-22T08:45:03;22.70;54.40
44851;DHT22;30583;48.714;9.386;2023-07-22T08:47:32;22.80;53.00
44851;DHT22;30583;48.714;9.386;2023-07-22T08:50:01;22.90;54.20
44851;DHT22;30583;48.714;9.386;2023-07-22T08:52:28;23.20;53.00
44851;DHT22;30583;48.714;9.386;2023-07-22T08:54:55;23.10;53.00
44851;DHT22;30583;48.714;9.386;2023-07-22T08:57:21;23.20;53.60
44851;DHT22;30583;48.714;9.386;2023-07-22T08:59:47;23.30;52.30
44851;DHT22;30583;48.714;9.386;2023-07-22T09:02:13;23.30;51.80
44851;DHT22;30583;48.714;9.386;2023-07-22T09:04:40;23.20;43.00
44851;DHT22;30583;48.714;9.386;2023-07-22T09:07:10;22.70;42.90
44851;DHT22;30583;48.714;9.386;2023-07-22T09:09:37;22.50;45.60
44851;DHT22;30583;48.714;9.386;2023-07-22T09:12:02;22.60;44.80
44851;DHT22;30583;48.714;9.386;2023-07-22T09:14:30;22.40;44.50
44851;DHT22;30583;48.714;9.386;2023-07-22T09:16:58;22.20;44.70
44851;DHT22;30583;48.714;9.386;2023-07-22T09:19:23;22.10;45.00
44851;DHT22;30583;48.714;9.386;2023-07-22T09:21:49;22.30;44.70
44851;DHT22;30583;48.714;9.386;2023-07-22T09:24:22;22.90;43.90
44851;DHT22;30583;48.714;9.386;2023-07-22T09:26:48;23.60;42.70
44851;DHT22;30583;48.714;9.386;2023-07-22T09:29:14;23.90;42.30
44851;DHT22;30583;48.714;9.386;2023-07-22T09:31:54;24.40;40.90
44851;DHT22;30583;48.714;9.386;2023-07-22T09:34:19;23.70;40.70
44851;DHT22;30583;48.714;9.386;2023-07-22T09:36:56;23.50;40.60
44851;DHT22;30583;48.714;9.386;2023-07-22T09:39:23;23.60;40.90
44851;DHT22;30583;48.714;9.386;2023-07-22T09:41:49;23.70;41.50
44851;DHT22;30583;48.714;9.386;2023-07-22T09:44:14;24.00;41.00
44851;DHT22;30583;48.714;9.386;2023-07-22T09:46:40;24.20;41.10
44851;DHT22;30583;48.714;9.386;2023-07-22T09:49:08;24.40;40.80
44851;DHT22;30583;48.714;9.386;2023-07-22T09:51:39;23.80;40.70
44851;DHT22;30583;48.714;9.386;2023-07-22T09:54:05;23.70;40.50
44851;DHT22;30583;48.714;9.386;2023-07-22T09:56:33;23.70;40.20
44851;DHT22;30583;48.714;9.386;2023-07-22T09:59:08;24.00;39.80
44851;DHT22;30583;48.714;9.386;2023-07-22T10:01:37;24.30;40.70
44851;DHT22;30583;48.714;9.386;2023-07-22T10:04:05;24.40;40.50
44851;DHT22;30583;48.714;9.386;2023-07-22T10:06:31;24.50;40.30
44851;DHT22;30583;48.714;9.386;2023-07-22T10:09:04;24.70;40.30
44851;DHT22;30583;48.714;9.386;2023-07-22T10:11:33;24.90;39.30
44851;DHT22;30583;48.714;9.386;2023-07-22T10:14:00;24.50;39.90
44851;DHT22;30583;48.714;9.386;2023-07-22T10:16:27;24.80;40.10
44851;DHT22;30583;48.714;9.386;2023-07-22T10:18:53;25.50;38.50
44851;DHT22;30583;48.714;9.386;2023-07-22T10:21:19;25.20;39.90
44851;DHT22;30583;48.714;9.386;2023-07-22T10:23:47;25.20;39.00
44851;DHT22;30583;48.714;9.386;2023-07-22T10:26:15;25.30;38.10
44851;DHT22;30583;48.714;9.386;2023-07-22T10:28:43;25.10;38.20
44851;DHT22;30583;48.714;9.386;2023-07-22T10:31:09;24.80;38.60
44851;DHT22;30583;48.714;9.386;2023-07-22T10:33:35;25.00;38.90
44851;DHT22;30583;48.714;9.386;2023-07-22T10:36:09;25.30;38.00
44851;DHT22;30583;48.714;9.386;2023-07-22T10:38:38;25.50;37.10
44851;DHT22;30583;48.714;9.386;2023-07-22T10:41:16;25.50;36.50
44851;DHT22;30583;48.714;9.386;2023-07-22T10:43:53;26.00;36.50
44851;DHT22;30583;48.714;9.386;2023-07-22T10:46:34;26.20;35.70
44851;DHT22;30583;48.714;9.386;2023-07-22T10:49:10;26.60;35.60
44851;DHT22;30583;48.714;9.386;2023-07-22T10:51:37;26.80;35.00
44851;DHT22;30583;48.714;9.386;2023-07-22T10:54:10;26.10;35.10
44851;DHT22;30583;48.714;9.386;2023-07-22T10:56:36;26.80;35.10
44851;DHT22;30583;48.714;9.386;2023-07-22T10:59:01;27.20;34.80
44851;DHT22;30583;48.714;9.386;2023-07-22T11:14:52;26.20;35.80
44851;DHT22;30583;48.714;9.386;2023-07-22T11:17:32;26.60;35.00
44851;DHT22;30583;48.714;9.386;2023-07-22T11:19:59;26.00;35.80
44851;DHT22;30583;48.714;9.386;2023-07-22T11:22:25;26.20;35.90
44851;DHT22;30583;48.714;9.386;2023-07-22T11:24:52;27.00;35.00
44851;DHT22;30583;48.714;9.386;2023-07-22T11:27:17;27.10;34.50
44851;DHT22;30583;48.714;9.386;2023-07-22T11:29:43;27.10;35.30
44851;DHT22;30583;48.714;9.386;2023-07-22T11:32:16;26.20;36.70
44851;DHT22;30583;48.714;9.386;2023-07-22T11:34:42;26.10;36.60
44851;DHT22;30583;48.714;9.386;2023-07-22T11:37:10;25.70;36.60
44851;DHT22;30583;48.714;9.386;2023-07-22T11:39:35;25.60;36.80
44851;DHT22;30583;48.714;9.386;2023-07-22T11:42:03;25.80;36.70
44851;DHT22;30583;48.714;9.386;2023-07-22T11:44:30;25.70;37.70
44851;DHT22;30583;48.714;9.386;2023-07-22T11:46:58;26.00;36.60
44851;DHT22;30583;48.714;9.386;2023-07-22T11:51:51;26.00;37.30
44851;DHT22;30583;48.714;9.386;2023-07-22T11:54:17;26.10;35.80
44851;DHT22;30583;48.714;9.386;2023-07-22T11:56:43;25.80;36.30
44851;DHT22;30583;48.714;9.386;2023-07-22T11:59:09;26.00;36.00
44851;DHT22;30583;48.714;9.386;2023-07-22T12:01:34;26.00;36.50
44851;DHT22;30583;48.714;9.386;2023-07-22T12:04:00;26.00;35.90
44851;DHT22;30583;48.714;9.386;2023-07-22T12:06:27;26.40;35.30
44851;DHT22;30583;48.714;9.386;2023-07-22T12:08:53;26.70;35.30
44851;DHT22;30583;48.714;9.386;2023-07-22T12:11:23;26.70;35.00
44851;DHT22;30583;48.714;9.386;2023-07-22T12:14:08;26.70;35.70
44851;DHT22;30583;48.714;9.386;2023-07-22T12:16:41;26.50;35.60
44851;DHT22;30583;48.714;9.386;2023-07-22T12:19:08;26.30;36.00
44851;DHT22;30583;48.714;9.386;2023-07-22T12:21:34;26.10;36.40
44851;DHT22;30583;48.714;9.386;2023-07-22T12:24:01;26.50;36.40
44851;DHT22;30583;48.714;9.386;2023-07-22T12:26:27;26.40;36.10
44851;DHT22;30583;48.714;9.386;2023-07-22T12:28:52;26.20;36.70
44851;DHT22;30583;48.714;9.386;2023-07-22T12:31:18;26.10;36.70
44851;DHT22;30583;48.714;9.386;2023-07-22T12:33:44;26.30;36.90
44851;DHT22;30583;48.714;9.386;2023-07-22T12:36:09;26.50;37.00
44851;DHT22;30583;48.714;9.386;2023-07-22T12:38:35;26.50;37.30
44851;DHT22;30583;48.714;9.386;2023-07-22T12:41:01;26.10;37.40
44851;DHT22;30583;48.714;9.386;2023-07-22T12:43:27;25.90;37.50
44851;DHT22;30583;48.714;9.386;2023-07-22T12:45:52;25.90;37.30
44851;DHT22;30583;48.714;9.386;2023-07-22T12:48:18;26.30;36.40
44851;DHT22;30583;48.714;9.386;2023-07-22T12:50:44;26.50;36.00
44851;DHT22;30583;48.714;9.386;2023-07-22T12:53:10;26.70;36.30
44851;DHT22;30583;48.714;9.386;2023-07-22T12:55:36;27.00;35.80
44851;DHT22;30583;48.714;9.386;2023-07-22T12:58:01;26.90;35.70
44851;DHT22;30583;48.714;9.386;2023-07-22T13:00:27;27.00;35.70
44851;DHT22;30583;48.714;9.386;2023-07-22T13:02:53;26.80;36.30
44851;DHT22;30583;48.714;9.386;2023-07-22T13:05:19;26.80;36.20
44851;DHT22;30583;48.714;9.386;2023-07-22T13:07:45;27.00;34.90
44851;DHT22;30583;48.714;9.386;2023-07-22T13:10:10;27.40;34.40
44851;DHT22;30583;48.714;9.386;2023-07-22T13:12:38;27.70;34.20
44851;DHT22;30583;48.714;9.386;2023-07-22T13:15:04;27.20;34.90
44851;DHT22;30583;48.714;9.386;2023-07-22T13:17:31;26.80;35.10
44851;DHT22;30583;48.714;9.386;2023-07-22T13:19:57;26.80;34.60
44851;DHT22;30583;48.714;9.386;2023-07-22T13:22:22;27.00;34.20
44851;DHT22;30583;48.714;9.386;2023-07-22T13:24:48;27.10;35.10
44851;DHT22;30583;48.714;9.386;2023-07-22T13:27:13;27.30;33.80
44851;DHT22;30583;48.714;9.386;2023-07-22T13:29:39;27.50;33.80
44851;DHT22;30583;48.714;9.386;2023-07-22T13:32:05;27.50;33.80
44851;DHT22;30583;48.714;9.386;2023-07-22T13:34:31;27.40;34.00
44851;DHT22;30583;48.714;9.386;2023-07-22T13:36:57;27.50;34.60
44851;DHT22;30583;48.714;9.386;2023-07-22T13:39:22;28.00;34.60
44851;DHT22;30583;48.714;9.386;2023-07-22T13:41:48;28.00;34.40
44851;DHT22;30583;48.714;9.386;2023-07-22T13:44:14;27.90;33.20
44851;DHT22;30583;48.714;9.386;2023-07-22T13:46:40;27.90;32.60
44851;DHT22;30583;48.714;9.386;2023-07-22T13:49:06;27.90;32.60
44851;DHT22;30583;48.714;9.386;2023-07-22T13:51:31;27.80;33.10
44851;DHT22;30583;48.714;9.386;2023-07-22T13:53:57;28.20;32.30
44851;DHT22;30583;48.714;9.386;2023-07-22T13:56:24;28.30;31.60
44851;DHT22;30583;48.714;9.386;2023-07-22T13:58:49;28.30;31.50
44851;DHT22;30583;48.714;9.386;2023-07-22T14:01:15;27.50;31.90
44851;DHT22;30583;48.714;9.386;2023-07-22T14:03:41;27.30;32.60
44851;DHT22;30583;48.714;9.386;2023-07-22T14:06:06;27.30;32.40
44851;DHT22;30583;48.714;9.386;2023-07-22T14:08:33;27.70;33.00
44851;DHT22;30583;48.714;9.386;2023-07-22T14:10:59;27.80;32.30
44851;DHT22;30583;48.714;9.386;2023-07-22T14:13:25;28.20;33.40
44851;DHT22;30583;48.714;9.386;2023-07-22T14:15:50;28.10;31.90
44851;DHT22;30583;48.714;9.386;2023-07-22T14:18:16;27.30;33.40
44851;DHT22;30583;48.714;9.386;2023-07-22T14:20:43;27.10;33.10
44851;DHT22;30583;48.714;9.386;2023-07-22T14:23:09;27.00;34.00
44851;DHT22;30583;48.714;9.386;2023-07-22T14:25:35;27.40;33.60
44851;DHT22;30583;48.714;9.386;2023-07-22T14:28:00;27.40;33.20
44851;DHT22;30583;48.714;9.386;2023-07-22T14:30:26;27.20;34.20
44851;DHT22;30583;48.714;9.386;2023-07-22T14:32:51;27.00;34.10
44851;DHT22;30583;48.714;9.386;2023-07-22T14:35:17;27.10;34.30
44851;DHT22;30583;48.714;9.386;2023-07-22T14:37:42;27.00;33.80
44851;DHT22;30583;48.714;9.386;2023-07-22T14:40:08;27.30;32.80
44851;DHT22;30583;48.714;9.386;2023-07-22T14:42:34;27.50;33.00
44851;DHT22;30583;48.714;9.386;2023-07-22T14:45:00;27.80;32.70
44851;DHT22;30583;48.714;9.386;2023-07-22T14:47:25;27.70;31.80
44851;DHT22;30583;48.714;9.386;2023-07-22T14:49:51;27.70;32.00
44851;DHT22;30583;48.714;9.386;2023-07-22T14:52:17;27.50;32.40
44851;DHT22;30583;48.714;9.386;2023-07-22T14:54:43;27.90;32.40
44851;DHT22;30583;48.714;9.386;2023-07-22T14:57:08;27.90;32.20
44851;DHT22;30583;48.714;9.386;2023-07-22T14:59:34;27.80;31.60
44851;DHT22;30583;48.714;9.386;2023-07-22T15:01:59;27.90;32.10
44851;DHT22;30583;48.714;9.386;2023-07-22T15:04:25;27.80;32.00
44851;DHT22;30583;48.714;9.386;2023-07-22T15:06:51;27.60;31.90
44851;DHT22;30583;48.714;9.386;2023-07-22T15:09:16;27.70;32.00
44851;DHT22;30583;48.714;9.386;2023-07-22T15:11:42;27.70;31.90
44851;DHT22;30583;48.714;9.386;2023-07-22T15:14:07;27.50;31.80
44851;DHT22;30583;48.714;9.386;2023-07-22T15:16:33;27.50;32.20
44851;DHT22;30583;48.714;9.386;2023-07-22T15:18:59;27.20;32.80
44851;DHT22;30583;48.714;9.386;2023-07-22T15:21:25;26.80;33.10
44851;DHT22;30583;48.714;9.386;2023-07-22T15:23:51;26.70;33.50
44851;DHT22;30583;48.714;9.386;2023-07-22T15:26:16;26.30;34.30
44851;DHT22;30583;48.714;9.386;2023-07-22T15:28:42;26.40;34.70
44851;DHT22;30583;48.714;9.386;2023-07-22T15:31:07;26.30;35.10
44851;DHT22;30583;48.714;9.386;2023-07-22T15:33:36;26.20;35.80
44851;DHT22;30583;48.714;9.386;2023-07-22T15:36:02;26.40;34.80
44851;DHT22;30583;48.714;9.386;2023-07-22T15:38:28;26.40;34.90
44851;DHT22;30583;48.714;9.386;2023-07-22T15:40:54;26.70;34.60